Time;durP1;ratioP1;P1;durP2;ratioP2;P2;SDS_P1;SDS_P2;PMS_P1;PMS_P2;Temp;Humidity;BMP_temperature;BMP_pressure;BME280_temperature;BME280_humidity;BME280_pressure;Samples;Min_cycle;Max_cycle;Signal;HPM_P1;HPM_P2
2023/10/15 00:00:55;;;;;;;10.20;2.35;;;7.70;99.90;;;;;;5052973;28;20197;-58
2023/10/15 00:03:23;;;;;;;3.63;1.70;;;7.70;99.90;;;;;;5052622;28;20621;-58
2023/10/15 00:05:50;;;;;;;4.90;2.10;;;7.60;99.90;;;;;;5052725;28;20205;-58
2023/10/15 00:08:17;;;;;;;4.35;1.80;;;7.60;99.90;;;;;;5052483;28;20202;-58
2023/10/15 00:10:44;;;;;;;14.60;2.85;;;7.60;99.90;;;;;;5052514;28;20269;-58
2023/10/15 00:13:11;;;;;;;12.65;2.90;;;7.60;99.90;;;;;;5052471;28;20206;-58
2023/10/15 00:15:39;;;;;;;14.35;2.90;;;7.60;99.90;;;;;;5052715;28;20228;-59
2023/10/15 00:18:09;;;;;;;5.75;2.50;;;7.50;99.90;;;;;;5052446;28;20213;-60
2023/10/15 00:20:40;;;;;;;9.60;2.35;;;7.50;99.90;;;;;;5052412;28;20206;-61
2023/10/15 00:23:07;;;;;;;4.90;2.03;;;7.50;99.90;;;;;;5052933;28;20199;-58
2023/10/15 00:25:35;;;;;;;10.95;2.28;;;7.50;99.90;;;;;;5053610;28;20224;-58
2023/10/15 00:28:05;;;;;;;8.93;2.10;;;7.50;99.90;;;;;;5055088;28;20201;-58
2023/10/15 00:30:33;;;;;;;10.23;2.50;;;7.60;99.90;;;;;;5056772;28;20201;-60
2023/10/15 00:33:03;;;;;;;7.35;2.30;;;7.60;99.90;;;;;;5057101;28;20308;-58
2023/10/15 00:35:33;;;;;;;12.85;2.60;;;7.60;99.90;;;;;;5056715;28;20262;-58
2023/10/15 00:38:07;;;;;;;8.60;2.45;;;7.70;99.90;;;;;;5056782;28;20260;-58
2023/10/15 00:40:37;;;;;;;6.55;2.03;;;7.70;99.90;;;;;;5056827;28;20594;-59
2023/10/15 00:43:04;;;;;;;10.20;2.63;;;7.80;99.90;;;;;;5056700;28;20208;-58
2023/10/15 00:45:36;;;;;;;5.72;1.65;;;7.80;99.90;;;;;;5056793;28;20281;-58
2023/10/15 00:48:07;;;;;;;9.98;2.10;;;7.80;99.90;;;;;;5056748;28;20645;-58
2023/10/15 00:50:40;;;;;;;4.85;1.85;;;7.80;99.90;;;;;;5056947;28;20557;-57
2023/10/15 00:53:21;;;;;;;12.73;2.00;;;7.80;99.90;;;;;;5056624;28;20189;-57
2023/10/15 00:55:50;;;;;;;4.93;1.98;;;7.80;99.90;;;;;;5056611;28;20342;-57
2023/10/15 00:58:22;;;;;;;9.80;3.10;;;7.70;99.90;;;;;;5056074;28;20232;-58
2023/10/15 01:00:53;;;;;;;6.82;2.35;;;7.70;99.90;;;;;;5055910;28;20754;-58
2023/10/15 01:03:30;;;;;;;8.35;1.98;;;7.60;99.90;;;;;;5056104;28;20190;-58
2023/10/15 01:06:04;;;;;;;10.60;2.03;;;7.60;99.90;;;;;;5056408;28;20210;-58
2023/10/15 01:08:35;;;;;;;8.63;2.70;;;7.60;99.90;;;;;;5056360;28;20186;-58
2023/10/15 01:11:09;;;;;;;8.90;2.08;;;7.60;99.90;;;;;;5056054;28;20628;-58
2023/10/15 01:13:37;;;;;;;9.70;2.25;;;7.50;99.90;;;;;;5056251;28;20201;-59
2023/10/15 01:16:08;;;;;;;8.00;2.05;;;7.50;99.90;;;;;;5056002;28;20204;-58
2023/10/15 01:18:35;;;;;;;5.20;2.10;;;7.50;99.90;;;;;;5056792;28;20264;-59
2023/10/15 01:21:04;;;;;;;7.72;2.70;;;7.50;99.90;;;;;;5055713;28;20217;-59
2023/10/15 01:23:43;;;;;;;6.10;1.73;;;7.50;99.90;;;;;;5055829;28;20199;-58
2023/10/15 01:26:17;;;;;;;6.10;1.90;;;7.50;99.90;;;;;;5055690;28;20634;-59
2023/10/15 01:28:45;;;;;;;10.98;2.45;;;7.60;99.90;;;;;;5056285;28;20219;-58
2023/10/15 01:31:15;;;;;;;8.70;1.80;;;7.60;99.90;;;;;;5055992;28;20224;-58
2023/10/15 01:33:47;;;;;;;5.45;1.92;;;7.60;99.90;;;;;;5055624;28;20676;-58
2023/10/15 01:36:17;;;;;;;6.18;2.05;;;7.60;99.90;;;;;;5056453;28;20647;-60
2023/10/15 01:38:44;;;;;;;10.70;2.10;;;7.60;99.90;;;;;;5055778;28;20702;-59
2023/10/15 01:41:13;;;;;;;7.50;2.10;;;7.60;99.90;;;;;;5057576;28;20289;-59
2023/10/15 01:43:41;;;;;;;7.07;2.40;;;7.70;99.90;;;;;;5056462;28;20536;-59
2023/10/15 01:46:10;;;;;;;7.75;1.75;;;7.60;99.90;;;;;;5055625;28;20201;-59
2023/10/15 01:48:41;;;;;;;10.13;2.25;;;7.70;99.90;;;;;;5055354;28;20237;-59
2023/10/15 01:51:07;;;;;;;6.65;1.95;;;7.70;99.90;;;;;;5056303;28;20302;-59
2023/10/15 01:53:36;;;;;;;12.77;3.55;;;7.70;99.90;;;;;;5055427;28;20200;-59
2023/10/15 01:56:03;;;;;;;14.30;2.40;;;7.80;99.90;;;;;;5055487;28;20201;-59
2023/10/15 01:58:31;;;;;;;5.57;2.00;;;7.80;99.90;;;;;;5055261;28;20219;-58
2023/10/15 02:01:04;;;;;;;4.53;1.95;;;7.80;99.90;;;;;;5055275;28;20286;-58
2023/10/15 02:03:32;;;;;;;5.10;2.13;;;7.80;99.90;;;;;;5055312;28;20255;-59
2023/10/15 02:06:05;;;;;;;16.63;2.13;;;7.90;99.90;;;;;;5055211;28;20205;-58
2023/10/15 02:08:34;;;;;;;10.45;2.50;;;8.00;99.90;;;;;;5055380;28;20240;-59
2023/10/15 02:11:09;;;;;;;3.47;1.77;;;8.00;99.90;;;;;;5055195;28;20255;-59
2023/10/15 02:13:40;;;;;;;9.77;2.72;;;8.00;99.90;;;;;;5055648;28;20241;-59
2023/10/15 02:16:09;;;;;;;5.15;1.38;;;8.00;99.90;;;;;;5060892;28;20186;-58
2023/10/15 02:18:36;;;;;;;13.02;2.30;;;8.00;99.90;;;;;;5061812;28;20255;-59
2023/10/15 02:21:03;;;;;;;5.18;2.15;;;8.00;99.90;;;;;;5060622;28;20203;-59
2023/10/15 02:23:32;;;;;;;11.13;2.28;;;8.00;99.90;;;;;;5059639;28;20232;-58
2023/10/15 02:25:59;;;;;;;8.45;1.58;;;8.10;99.90;;;;;;5058227;28;20645;-59
2023/10/15 02:28:31;;;;;;;6.65;2.00;;;8.00;99.90;;;;;;5056625;28;20197;-58
2023/10/15 02:31:06;;;;;;;7.28;1.77;;;8.00;99.90;;;;;;5054926;28;20190;-58
2023/10/15 02:33:33;;;;;;;7.43;1.38;;;7.90;99.90;;;;;;5054402;28;20644;-58
2023/10/15 02:36:00;;;;;;;4.47;1.63;;;7.90;99.90;;;;;;5061669;22;20327;-67
2023/10/15 02:38:27;;;;;;;5.30;1.80;;;7.90;99.90;;;;;;5034456;28;20229;-65
2023/10/15 02:40:58;;;;;;;5.57;1.70;;;7.90;99.90;;;;;;5034521;28;20214;-66
2023/10/15 02:43:26;;;;;;;4.93;1.50;;;7.90;99.90;;;;;;5034733;28;20198;-65
2023/10/15 02:45:53;;;;;;;9.40;2.10;;;7.90;99.90;;;;;;5034439;28;20284;-65
2023/10/15 02:48:23;;;;;;;8.43;2.03;;;7.90;99.90;;;;;;5034723;28;20209;-65
2023/10/15 02:51:00;;;;;;;6.93;2.40;;;7.80;99.90;;;;;;5033821;28;20204;-65
2023/10/15 02:53:28;;;;;;;6.90;1.50;;;7.80;99.90;;;;;;5035179;28;20190;-65
2023/10/15 02:55:58;;;;;;;8.57;4.03;;;7.80;99.90;;;;;;5035042;28;20223;-67
2023/10/15 02:58:28;;;;;;;4.32;1.70;;;7.80;99.90;;;;;;5034374;28;20719;-65
2023/10/15 03:00:59;;;;;;;4.47;1.85;;;7.80;99.90;;;;;;5034763;28;20189;-65
2023/10/15 03:03:34;;;;;;;6.43;2.08;;;7.80;99.90;;;;;;5034088;28;20634;-65
2023/10/15 03:06:01;;;;;;;5.13;2.28;;;7.80;99.90;;;;;;5034174;28;20227;-65
2023/10/15 03:08:32;;;;;;;7.32;2.22;;;7.80;99.90;;;;;;5034528;28;20204;-66
2023/10/15 03:11:07;;;;;;;5.57;2.08;;;7.80;99.90;;;;;;5033875;28;20547;-67
2023/10/15 03:13:49;;;;;;;3.42;1.80;;;7.80;99.90;;;;;;5033706;28;20206;-66
2023/10/15 03:16:19;;;;;;;5.97;1.52;;;7.80;99.90;;;;;;5034006;28;20198;-66
2023/10/15 03:18:52;;;;;;;3.42;1.38;;;7.80;99.90;;;;;;5033483;28;20707;-66
2023/10/15 03:21:26;;;;;;;3.65;1.55;;;7.80;99.90;;;;;;5034097;28;20288;-66
2023/10/15 03:23:55;;;;;;;7.50;1.63;;;7.80;99.90;;;;;;5033739;28;20628;-67
2023/10/15 03:26:22;;;;;;;4.95;1.85;;;7.80;99.90;;;;;;5033722;28;20299;-66
2023/10/15 03:28:51;;;;;;;5.22;1.50;;;7.80;99.90;;;;;;5033672;28;20687;-65
2023/10/15 03:31:23;;;;;;;4.20;1.45;;;7.80;99.90;;;;;;5033300;28;20706;-66
2023/10/15 03:36:44;;;;;;;5.55;1.00;;;7.90;99.90;;;;;;5032329;28;20309;-66
2023/10/15 03:39:15;;;;;;;4.50;1.50;;;7.80;99.90;;;;;;5033316;28;20645;-66
2023/10/15 03:41:42;;;;;;;1.65;1.10;;;7.80;99.90;;;;;;5033205;28;20191;-66
2023/10/15 03:44:10;;;;;;;4.32;1.02;;;7.90;99.90;;;;;;5033510;28;20695;-66
2023/10/15 03:46:37;;;;;;;3.28;1.33;;;7.90;99.90;;;;;;5033267;28;20627;-65
2023/10/15 03:49:07;;;;;;;2.15;1.00;;;7.90;99.90;;;;;;5033795;28;20226;-66
2023/10/15 03:51:40;;;;;;;2.08;0.90;;;8.00;99.90;;;;;;5034380;28;20252;-66
2023/10/15 03:54:08;;;;;;;3.47;1.30;;;8.00;99.90;;;;;;5033435;28;20189;-65
2023/10/15 03:56:35;;;;;;;1.35;0.80;;;8.00;99.90;;;;;;5033148;28;20588;-66
2023/10/15 03:59:03;;;;;;;4.45;0.93;;;8.00;99.90;;;;;;5033336;28;20226;-65
2023/10/15 04:01:30;;;;;;;4.82;1.30;;;8.00;99.90;;;;;;5064152;22;20231;-61
2023/10/15 04:04:00;;;;;;;3.20;1.50;;;8.00;99.90;;;;;;5053303;28;20212;-61
2023/10/15 04:06:29;;;;;;;3.42;1.10;;;8.00;99.90;;;;;;5053523;28;20192;-60
2023/10/15 04:12:23;;;;;;;3.35;1.10;;;8.00;99.90;;;;;;5091924;28;20614;-60
2023/10/15 04:14:55;;;;;;;1.63;1.50;;;8.00;99.90;;;;;;5091729;28;20185;-61
2023/10/15 04:17:22;;;;;;;4.55;1.40;;;8.00;99.90;;;;;;5091220;28;20262;-61
2023/10/15 04:19:48;;;;;;;6.15;1.05;;;8.00;99.90;;;;;;5091872;28;20200;-61
2023/10/15 04:22:15;;;;;;;4.80;1.20;;;8.00;99.90;;;;;;5091117;28;20216;-60
2023/10/15 04:24:46;;;;;;;4.47;1.30;;;8.00;99.90;;;;;;5091405;28;20204;-60
2023/10/15 04:27:16;;;;;;;3.45;2.00;;;8.00;99.90;;;;;;5091246;28;20246;-60
2023/10/15 04:29:50;;;;;;;1.30;0.80;;;7.90;99.90;;;;;;5091292;28;20218;-61
2023/10/15 04:32:28;;;;;;;3.28;1.35;;;7.90;99.90;;;;;;5090495;28;20220;-61
2023/10/15 04:35:01;;;;;;;1.42;0.77;;;7.90;99.90;;;;;;5090206;28;20780;-62
2023/10/15 04:37:29;;;;;;;1.63;0.90;;;7.80;99.90;;;;;;5090808;28;20191;-61
2023/10/15 04:39:58;;;;;;;3.50;1.40;;;7.80;99.90;;;;;;5090440;28;20225;-60
2023/10/15 04:42:29;;;;;;;2.45;0.95;;;7.80;99.90;;;;;;5089877;28;20781;-61
2023/10/15 04:44:59;;;;;;;3.80;1.13;;;7.70;99.90;;;;;;5090205;28;20533;-60
2023/10/15 04:47:28;;;;;;;2.45;0.80;;;7.70;99.90;;;;;;5091078;28;20196;-61
2023/10/15 04:49:57;;;;;;;1.55;1.13;;;7.70;99.90;;;;;;5090202;28;20200;-61
2023/10/15 04:52:24;;;;;;;3.00;1.08;;;7.60;99.90;;;;;;5089694;28;20238;-61
2023/10/15 04:54:55;;;;;;;1.55;1.10;;;7.60;99.90;;;;;;5089989;28;20226;-59
2023/10/15 04:57:22;;;;;;;9.48;1.92;;;7.60;99.90;;;;;;5090182;28;20201;-61
2023/10/15 04:59:49;;;;;;;2.45;1.33;;;7.60;99.90;;;;;;5090034;28;20211;-60
2023/10/15 05:02:18;;;;;;;2.78;1.10;;;7.70;99.90;;;;;;5090762;28;20216;-60
2023/10/15 05:04:44;;;;;;;1.67;1.20;;;7.60;99.90;;;;;;5089874;28;20209;-61
2023/10/15 05:07:15;;;;;;;1.70;1.15;;;7.50;99.90;;;;;;5090130;28;20712;-60
2023/10/15 05:09:44;;;;;;;3.33;1.45;;;7.50;99.90;;;;;;5089926;28;20199;-61
2023/10/15 05:12:11;;;;;;;5.25;1.15;;;7.40;99.90;;;;;;5090097;28;20240;-60
2023/10/15 05:14:38;;;;;;;4.03;1.05;;;7.40;99.90;;;;;;5090317;28;20202;-60
2023/10/15 05:17:05;;;;;;;1.45;0.90;;;7.30;99.90;;;;;;5090381;28;20202;-60
2023/10/15 05:19:33;;;;;;;1.73;1.10;;;7.30;99.90;;;;;;5090614;28;20205;-60
2023/10/15 05:22:00;;;;;;;3.45;1.27;;;7.30;99.90;;;;;;5086501;28;20706;-60
2023/10/15 05:24:27;;;;;;;1.42;0.90;;;7.20;99.90;;;;;;5077134;28;20201;-60
2023/10/15 05:26:54;;;;;;;4.80;1.27;;;7.20;99.90;;;;;;5076597;28;20198;-60
2023/10/15 05:29:21;;;;;;;2.25;1.27;;;7.20;99.90;;;;;;5077527;28;20202;-60
2023/10/15 05:31:48;;;;;;;1.63;0.85;;;7.10;99.90;;;;;;5077497;28;20267;-60
2023/10/15 05:34:15;;;;;;;3.65;1.10;;;7.10;99.90;;;;;;5077831;28;20207;-61
2023/10/15 05:36:43;;;;;;;2.90;1.08;;;7.10;99.90;;;;;;5077298;28;20215;-61
2023/10/15 05:39:10;;;;;;;4.60;1.10;;;7.00;99.90;;;;;;5077464;28;20198;-60
2023/10/15 05:41:38;;;;;;;2.00;1.00;;;7.00;99.90;;;;;;5077384;28;20292;-60
2023/10/15 05:44:05;;;;;;;1.65;0.82;;;6.90;99.90;;;;;;5076599;28;20205;-61
2023/10/15 05:46:32;;;;;;;2.08;1.00;;;7.00;99.90;;;;;;5077268;28;20204;-60
2023/10/15 05:49:00;;;;;;;1.70;1.10;;;6.90;99.90;;;;;;5077120;28;20210;-59
2023/10/15 05:51:27;;;;;;;1.55;1.08;;;6.90;99.90;;;;;;5076253;28;20226;-60
2023/10/15 05:53:55;;;;;;;2.45;1.17;;;6.90;99.90;;;;;;5077335;28;20212;-60
2023/10/15 05:56:22;;;;;;;1.42;1.05;;;6.90;99.90;;;;;;5077372;28;20237;-61
2023/10/15 05:58:50;;;;;;;1.90;1.23;;;6.90;99.90;;;;;;5076414;28;20209;-60
2023/10/15 06:01:17;;;;;;;3.30;0.85;;;6.90;99.90;;;;;;5077128;28;20219;-60
2023/10/15 06:03:44;;;;;;;2.95;1.05;;;6.90;99.90;;;;;;5077602;28;20222;-59
2023/10/15 06:06:11;;;;;;;1.10;0.85;;;6.90;99.90;;;;;;5077772;28;20201;-60
2023/10/15 06:08:38;;;;;;;3.25;1.02;;;6.90;99.90;;;;;;5077671;28;20279;-60
2023/10/15 06:11:06;;;;;;;2.65;1.63;;;6.90;99.90;;;;;;5076687;28;20225;-60
2023/10/15 06:13:33;;;;;;;1.45;0.90;;;6.90;99.90;;;;;;5078729;28;20238;-60
2023/10/15 06:16:00;;;;;;;1.00;0.80;;;6.90;99.90;;;;;;5079676;28;20201;-61
2023/10/15 06:18:27;;;;;;;4.75;1.10;;;6.90;99.90;;;;;;5079611;28;20208;-61
2023/10/15 06:20:55;;;;;;;1.00;0.82;;;6.90;99.90;;;;;;5079455;28;20213;-61
2023/10/15 06:23:21;;;;;;;2.45;1.02;;;6.90;99.90;;;;;;5077856;28;20210;-60
2023/10/15 06:25:49;;;;;;;3.65;1.10;;;6.90;99.90;;;;;;5079274;28;20203;-60
2023/10/15 06:28:17;;;;;;;2.08;0.80;;;6.90;99.90;;;;;;5079594;28;20625;-60
2023/10/15 06:30:45;;;;;;;1.42;0.80;;;6.90;99.90;;;;;;5079155;28;20205;-61
2023/10/15 06:33:13;;;;;;;3.03;0.80;;;6.90;99.90;;;;;;5078827;28;20315;-60
2023/10/15 06:35:41;;;;;;;2.00;1.52;;;7.00;99.90;;;;;;5078699;28;20202;-60
2023/10/15 06:38:07;;;;;;;4.70;1.10;;;7.00;99.90;;;;;;5076367;28;20197;-59
2023/10/15 06:40:38;;;;;;;4.20;1.20;;;7.00;99.90;;;;;;5078714;28;20589;-60
2023/10/15 06:43:05;;;;;;;3.28;0.65;;;7.10;99.90;;;;;;5078032;28;20216;-60
2023/10/15 06:45:33;;;;;;;4.20;1.55;;;7.10;99.90;;;;;;5078029;28;20200;-60
2023/10/15 06:48:00;;;;;;;1.98;1.00;;;7.20;99.90;;;;;;5077930;28;20240;-61
2023/10/15 06:50:27;;;;;;;1.23;0.80;;;7.20;99.90;;;;;;5077282;28;20206;-61
2023/10/15 06:52:54;;;;;;;5.97;1.30;;;7.20;99.90;;;;;;5075897;28;20225;-62
2023/10/15 06:55:21;;;;;;;1.50;1.17;;;7.30;99.90;;;;;;5077050;28;20216;-61
2023/10/15 06:57:49;;;;;;;2.85;1.15;;;7.30;99.90;;;;;;5076620;28;20283;-59
2023/10/15 07:00:22;;;;;;;2.67;1.05;;;7.30;99.90;;;;;;5075682;28;20204;-60
2023/10/15 07:02:50;;;;;;;3.30;1.50;;;7.30;99.90;;;;;;5076622;28;20220;-60
2023/10/15 07:05:20;;;;;;;2.50;1.02;;;7.30;99.90;;;;;;5076262;28;20696;-60
2023/10/15 07:07:47;;;;;;;2.05;0.90;;;7.40;99.90;;;;;;5078440;28;20197;-60
2023/10/15 07:10:15;;;;;;;2.28;0.90;;;7.50;99.90;;;;;;5078943;28;20228;-62
2023/10/15 07:12:45;;;;;;;1.63;0.88;;;7.60;99.90;;;;;;5075803;28;20232;-60
2023/10/15 07:15:13;;;;;;;3.88;1.23;;;7.60;99.90;;;;;;5077532;28;20207;-60
2023/10/15 07:17:40;;;;;;;3.72;1.25;;;7.70;99.90;;;;;;5076215;28;20208;-61
2023/10/15 07:20:14;;;;;;;3.17;1.27;;;7.80;99.90;;;;;;5076286;28;20294;-61
2023/10/15 07:22:46;;;;;;;2.85;0.93;;;7.90;99.90;;;;;;5074566;28;20259;-60
2023/10/15 07:25:14;;;;;;;0.90;0.90;;;8.10;99.90;;;;;;5079785;28;20181;-61
2023/10/15 07:27:41;;;;;;;2.00;1.30;;;8.10;99.90;;;;;;5075853;28;20258;-61
2023/10/15 07:30:12;;;;;;;2.08;1.08;;;8.20;99.90;;;;;;5079062;28;20761;-61
2023/10/15 07:32:40;;;;;;;1.33;1.02;;;8.20;99.90;;;;;;5076964;28;20269;-61
2023/10/15 07:35:11;;;;;;;3.08;0.82;;;8.30;99.90;;;;;;5076899;28;20203;-61
2023/10/15 07:37:40;;;;;;;2.20;1.00;;;8.20;99.90;;;;;;5077898;28;20207;-61
2023/10/15 07:40:14;;;;;;;3.47;0.95;;;8.20;99.90;;;;;;5078306;28;20205;-60
2023/10/15 07:42:41;;;;;;;2.97;1.38;;;8.30;99.90;;;;;;5077636;28;20250;-61
2023/10/15 07:45:08;;;;;;;1.77;1.10;;;8.30;99.90;;;;;;5078619;28;20228;-60
2023/10/15 07:47:37;;;;;;;2.55;1.00;;;8.40;99.90;;;;;;5077806;28;20209;-60
2023/10/15 07:50:05;;;;;;;1.73;1.23;;;8.70;99.90;;;;;;5078113;28;20260;-60
2023/10/15 07:52:33;;;;;;;3.55;1.50;;;8.80;99.90;;;;;;5077141;28;20221;-61
2023/10/15 07:55:00;;;;;;;4.38;0.90;;;9.00;99.90;;;;;;5077291;28;20205;-60
2023/10/15 07:57:26;;;;;;;0.82;0.80;;;9.10;99.90;;;;;;5076316;28;20200;-61
2023/10/15 07:59:54;;;;;;;2.90;1.20;;;9.10;99.90;;;;;;5076584;28;20231;-61
2023/10/15 08:02:23;;;;;;;1.85;0.90;;;9.10;99.90;;;;;;5079726;28;20266;-61
2023/10/15 08:04:53;;;;;;;1.00;0.70;;;9.10;99.90;;;;;;5077644;28;20201;-60
2023/10/15 08:07:20;;;;;;;2.08;0.95;;;9.20;99.90;;;;;;5076680;28;20619;-61
2023/10/15 08:09:49;;;;;;;2.35;0.85;;;9.40;99.90;;;;;;5076491;28;20200;-61
2023/10/15 08:12:17;;;;;;;2.63;1.10;;;9.40;99.90;;;;;;5076884;28;20260;-60
2023/10/15 08:14:44;;;;;;;1.23;0.73;;;9.40;99.90;;;;;;5078505;28;20292;-61
2023/10/15 08:17:12;;;;;;;3.17;0.98;;;9.30;99.90;;;;;;5076264;28;20223;-61
2023/10/15 08:19:38;;;;;;;5.90;0.95;;;9.20;99.90;;;;;;5077920;28;20197;-61
2023/10/15 08:22:05;;;;;;;1.35;1.02;;;9.10;99.90;;;;;;5078573;28;20318;-62
2023/10/15 08:24:32;;;;;;;1.20;0.80;;;9.10;99.90;;;;;;5076573;28;20206;-61
2023/10/15 08:27:00;;;;;;;3.80;1.08;;;9.10;99.90;;;;;;5076454;28;20207;-60
2023/10/15 08:29:27;;;;;;;2.55;1.02;;;9.00;99.90;;;;;;5076776;28;20224;-60
2023/10/15 08:31:54;;;;;;;2.72;1.00;;;9.00;99.90;;;;;;5079457;28;20693;-61
2023/10/15 08:34:23;;;;;;;4.32;0.90;;;9.00;99.90;;;;;;5078419;28;20204;-61
2023/10/15 08:36:49;;;;;;;2.85;1.20;;;9.10;99.90;;;;;;5078380;28;20243;-61
2023/10/15 08:39:16;;;;;;;2.70;1.20;;;9.20;99.90;;;;;;5076025;28;20274;-59
2023/10/15 08:41:45;;;;;;;2.90;1.00;;;9.30;99.90;;;;;;5076465;28;20303;-60
2023/10/15 08:44:18;;;;;;;2.50;0.98;;;9.30;99.90;;;;;;5077083;28;20288;-60
2023/10/15 08:46:47;;;;;;;2.67;1.00;;;9.40;99.90;;;;;;5075587;28;20646;-60
2023/10/15 08:49:16;;;;;;;2.65;0.95;;;9.50;99.90;;;;;;5076931;28;20204;-61
2023/10/15 08:51:44;;;;;;;2.20;1.10;;;9.50;99.90;;;;;;5076894;28;20631;-61
2023/10/15 08:54:12;;;;;;;2.05;1.00;;;9.50;99.90;;;;;;5074919;28;20211;-61
2023/10/15 08:56:39;;;;;;;1.23;1.02;;;9.50;99.90;;;;;;5075018;28;20680;-60
2023/10/15 08:59:09;;;;;;;1.87;1.10;;;9.50;99.90;;;;;;5079174;28;20201;-61
2023/10/15 09:01:40;;;;;;;2.83;1.40;;;9.50;99.90;;;;;;5077528;28;20478;-61
2023/10/15 09:04:09;;;;;;;2.90;1.10;;;9.50;99.90;;;;;;5076470;28;20889;-61
2023/10/15 09:06:37;;;;;;;3.17;1.20;;;9.50;99.90;;;;;;5076752;28;20197;-61
2023/10/15 09:09:04;;;;;;;2.90;1.80;;;9.50;99.90;;;;;;5077216;28;20211;-61
2023/10/15 09:11:31;;;;;;;1.10;1.00;;;9.60;99.90;;;;;;5076744;28;20467;-61
2023/10/15 09:13:58;;;;;;;1.10;0.70;;;9.70;99.90;;;;;;5076826;28;20205;-61
2023/10/15 09:16:26;;;;;;;1.27;0.80;;;9.80;99.90;;;;;;5077016;28;20500;-62
2023/10/15 09:18:57;;;;;;;2.50;1.15;;;9.90;99.90;;;;;;5076629;28;20955;-62
2023/10/15 09:21:25;;;;;;;6.43;1.17;;;9.80;99.90;;;;;;5076508;28;20726;-61
2023/10/15 09:23:52;;;;;;;1.90;1.13;;;9.80;99.90;;;;;;5076760;28;20458;-61
2023/10/15 09:26:19;;;;;;;5.33;1.00;;;9.80;99.60;;;;;;5077468;28;20450;-60
2023/10/15 09:28:46;;;;;;;3.00;0.97;;;9.90;99.70;;;;;;5076461;28;20512;-62
2023/10/15 09:31:13;;;;;;;1.60;0.83;;;9.90;99.00;;;;;;5076238;28;20463;-61
2023/10/15 09:33:40;;;;;;;1.20;0.67;;;9.90;98.80;;;;;;5076056;28;20578;-60
2023/10/15 09:36:08;;;;;;;2.93;1.17;;;9.80;98.70;;;;;;5076151;28;20443;-60
2023/10/15 09:38:36;;;;;;;2.40;0.80;;;9.80;98.80;;;;;;5075538;28;21015;-61
2023/10/15 09:41:05;;;;;;;2.30;1.73;;;9.80;99.00;;;;;;5076782;28;20828;-63
2023/10/15 09:43:35;;;;;;;3.27;1.17;;;9.80;99.10;;;;;;5076701;28;20500;-61
2023/10/15 09:46:03;;;;;;;5.13;1.23;;;10.00;98.70;;;;;;5076150;28;20442;-60
2023/10/15 09:48:33;;;;;;;2.70;1.00;;;10.10;98.80;;;;;;5076632;28;20443;-61
2023/10/15 09:51:00;;;;;;;1.30;0.80;;;10.40;98.70;;;;;;5076084;28;20459;-61
2023/10/15 09:53:29;;;;;;;3.10;1.43;;;10.60;98.30;;;;;;5075570;28;20486;-61
2023/10/15 09:55:57;;;;;;;1.67;1.17;;;10.90;97.90;;;;;;5076120;28;20449;-62
2023/10/15 09:58:25;;;;;;;1.97;0.97;;;11.10;97.00;;;;;;5076114;28;20898;-61
2023/10/15 10:01:08;;;;;;;1.57;0.90;;;11.10;96.30;;;;;;5076311;28;20480;-61
2023/10/15 10:04:14;;;;;;;1.37;0.93;;;11.10;95.80;;;;;;5076334;28;20420;-60
2023/10/15 10:07:03;;;;;;;1.30;0.70;;;11.00;95.60;;;;;;5075985;28;20455;-61
2023/10/15 10:10:01;;;;;;;3.23;1.20;;;10.90;95.10;;;;;;5075669;28;20428;-61
2023/10/15 10:12:38;;;;;;;2.30;1.23;;;11.00;94.60;;;;;;5077005;28;20483;-62
2023/10/15 10:15:30;;;;;;;1.80;0.70;;;10.90;93.90;;;;;;5077247;28;20429;-61
2023/10/15 10:17:59;;;;;;;1.37;1.00;;;10.80;93.50;;;;;;5076785;28;20523;-61
2023/10/15 10:20:31;;;;;;;3.33;1.10;;;10.70;92.90;;;;;;5077231;28;20478;-61
2023/10/15 10:23:00;;;;;;;4.20;1.40;;;10.60;92.80;;;;;;5075784;28;20521;-61
2023/10/15 10:25:35;;;;;;;2.80;1.00;;;10.40;92.80;;;;;;5076019;28;20439;-60
2023/10/15 10:28:10;;;;;;;0.90;0.73;;;10.30;93.30;;;;;;5075875;28;20423;-61
2023/10/15 10:30:39;;;;;;;1.37;0.70;;;10.30;93.40;;;;;;5075436;28;20439;-60
2023/10/15 10:33:06;;;;;;;1.97;0.90;;;10.30;93.60;;;;;;5075510;28;20482;-61
2023/10/15 10:35:43;;;;;;;2.93;0.97;;;10.30;93.70;;;;;;5075802;28;20779;-61
2023/10/15 10:38:17;;;;;;;1.63;0.70;;;10.30;93.70;;;;;;5075233;28;20928;-60
2023/10/15 10:40:49;;;;;;;2.37;1.03;;;10.30;93.70;;;;;;5074707;28;20797;-59
2023/10/15 10:43:17;;;;;;;1.67;1.00;;;10.40;93.90;;;;;;5074898;28;20933;-61
2023/10/15 10:45:55;;;;;;;3.00;0.90;;;10.50;94.00;;;;;;5075192;28;20453;-61
2023/10/15 10:48:23;;;;;;;1.40;1.10;;;10.60;94.00;;;;;;5076011;28;20428;-61
2023/10/15 10:51:12;;;;;;;2.87;1.10;;;10.70;93.70;;;;;;5074733;28;20448;-62
2023/10/15 10:53:39;;;;;;;2.50;0.90;;;10.70;93.40;;;;;;5074895;28;20466;-60
2023/10/15 10:56:08;;;;;;;2.03;1.03;;;10.80;93.30;;;;;;5074990;28;20474;-60
2023/10/15 10:58:37;;;;;;;2.80;1.30;;;10.80;92.50;;;;;;5074958;28;20439;-61
2023/10/15 11:01:06;;;;;;;3.73;0.90;;;10.80;92.50;;;;;;5075900;28;20465;-60
2023/10/15 11:03:33;;;;;;;1.63;0.90;;;10.70;92.30;;;;;;5077597;28;20440;-61
2023/10/15 11:06:00;;;;;;;1.30;0.87;;;10.60;92.10;;;;;;5076067;28;20466;-62
2023/10/15 11:08:27;;;;;;;2.07;0.80;;;10.60;92.30;;;;;;5075657;28;20478;-61
2023/10/15 11:10:54;;;;;;;1.00;0.70;;;10.50;92.30;;;;;;5074193;28;20832;-61
2023/10/15 11:13:22;;;;;;;2.40;1.30;;;10.30;92.20;;;;;;5074676;28;20475;-61
2023/10/15 11:15:51;;;;;;;2.40;1.03;;;10.30;92.50;;;;;;5074466;28;20471;-62
2023/10/15 11:18:22;;;;;;;1.30;0.87;;;10.40;92.40;;;;;;5080998;28;20483;-61
2023/10/15 11:20:50;;;;;;;5.83;1.20;;;10.60;92.00;;;;;;5080291;28;20786;-61
2023/10/15 11:23:17;;;;;;;1.87;0.83;;;10.70;91.70;;;;;;5074967;28;20485;-61
2023/10/15 11:25:44;;;;;;;2.23;1.10;;;10.90;92.00;;;;;;5074242;28;20527;-60
2023/10/15 11:28:13;;;;;;;2.87;1.00;;;11.10;91.50;;;;;;5074352;28;20451;-62
2023/10/15 11:30:41;;;;;;;1.63;0.80;;;11.30;91.10;;;;;;5073451;28;20456;-61
2023/10/15 11:33:09;;;;;;;2.70;0.93;;;11.40;90.30;;;;;;5073605;28;20515;-61
2023/10/15 11:35:37;;;;;;;4.73;0.77;;;11.40;89.20;;;;;;5073729;28;20981;-62
2023/10/15 11:38:08;;;;;;;1.60;1.07;;;11.30;88.60;;;;;;5074284;28;20440;-61
2023/10/15 11:40:37;;;;;;;3.53;1.10;;;11.10;88.20;;;;;;5074755;28;20429;-61
2023/10/15 11:43:09;;;;;;;3.67;0.90;;;10.80;88.10;;;;;;5075798;28;20439;-62
2023/10/15 11:45:37;;;;;;;1.57;0.70;;;10.80;88.80;;;;;;5074741;28;20927;-61
2023/10/15 11:48:11;;;;;;;1.10;0.70;;;10.70;88.40;;;;;;5074087;28;20496;-61
2023/10/15 11:50:40;;;;;;;3.13;0.97;;;10.60;88.80;;;;;;5073431;28;20427;-61
2023/10/15 11:53:16;;;;;;;1.83;0.80;;;10.50;89.70;;;;;;5074650;28;20479;-61
2023/10/15 11:55:47;;;;;;;3.13;1.07;;;10.40;90.00;;;;;;5074360;28;20550;-60
2023/10/15 11:58:16;;;;;;;1.20;1.10;;;10.40;90.10;;;;;;5074667;28;20502;-62
2023/10/15 12:00:47;;;;;;;2.33;0.83;;;10.40;90.20;;;;;;5074267;28;20444;-60
2023/10/15 12:03:16;;;;;;;2.70;1.00;;;10.30;90.40;;;;;;5074638;28;20894;-61
2023/10/15 12:05:43;;;;;;;2.00;0.93;;;10.30;90.70;;;;;;5074719;28;20503;-60
2023/10/15 12:08:12;;;;;;;1.07;0.97;;;10.30;91.00;;;;;;5073936;28;20439;-61
2023/10/15 12:10:41;;;;;;;3.73;0.97;;;10.30;91.00;;;;;;5073620;28;20455;-61
2023/10/15 12:13:08;;;;;;;0.80;0.70;;;10.20;91.10;;;;;;5073109;28;20475;-60
2023/10/15 12:15:35;;;;;;;1.43;0.90;;;10.30;91.40;;;;;;5073708;28;20483;-61
2023/10/15 12:18:03;;;;;;;2.50;0.90;;;10.30;90.90;;;;;;5073878;28;20440;-62
2023/10/15 12:20:31;;;;;;;2.20;1.17;;;10.40;90.80;;;;;;5074171;28;20512;-60
2023/10/15 12:22:58;;;;;;;1.47;0.80;;;10.40;90.70;;;;;;5073877;28;20451;-60
2023/10/15 12:25:25;;;;;;;1.10;0.60;;;10.50;90.70;;;;;;5074091;28;20522;-61
2023/10/15 12:27:52;;;;;;;1.50;1.00;;;10.50;90.70;;;;;;5073386;28;20439;-61
2023/10/15 12:30:23;;;;;;;1.67;1.30;;;10.50;90.80;;;;;;5073813;28;20439;-61
2023/10/15 12:32:50;;;;;;;2.03;1.20;;;10.50;91.10;;;;;;5075395;28;20482;-61
2023/10/15 12:35:19;;;;;;;1.10;0.80;;;10.50;91.30;;;;;;5077524;28;20897;-61
2023/10/15 12:37:47;;;;;;;1.90;0.80;;;10.50;91.20;;;;;;5077452;28;20451;-61
2023/10/15 12:40:21;;;;;;;1.67;0.87;;;10.70;90.40;;;;;;5078227;28;20497;-61
2023/10/15 12:42:48;;;;;;;1.20;0.83;;;10.90;88.30;;;;;;5078305;28;20479;-60
2023/10/15 12:45:16;;;;;;;2.53;1.10;;;11.00;86.40;;;;;;5077893;28;20846;-61
2023/10/15 12:47:43;;;;;;;1.60;1.00;;;11.10;84.70;;;;;;5077298;28;20768;-61
2023/10/15 12:50:14;;;;;;;3.27;1.07;;;11.20;82.50;;;;;;5077984;28;20485;-61
2023/10/15 12:52:41;;;;;;;2.70;0.70;;;11.20;81.90;;;;;;5078210;28;20492;-61
2023/10/15 12:55:10;;;;;;;1.37;0.93;;;11.30;81.30;;;;;;5077363;28;20448;-61
2023/10/15 12:57:37;;;;;;;1.83;0.60;;;11.40;80.50;;;;;;5080532;28;20438;-62
2023/10/15 13:00:11;;;;;;;2.20;0.60;;;11.40;79.40;;;;;;5078020;28;20588;-62
2023/10/15 13:02:38;;;;;;;3.90;0.70;;;11.30;78.20;;;;;;5077430;28;21072;-61
2023/10/15 13:05:06;;;;;;;2.70;0.90;;;11.10;77.20;;;;;;5076825;28;20435;-61
2023/10/15 13:07:34;;;;;;;1.20;0.60;;;11.00;77.20;;;;;;5077028;28;20447;-60
2023/10/15 13:10:01;;;;;;;1.33;0.90;;;11.10;77.30;;;;;;5077151;28;20444;-61